createdAt,value
2018-10-07T00:00:24.604Z,97203.14
2018-10-07T00:00:56.206Z,97198.91
2018-10-07T00:01:27.804Z,97201.03
2018-10-07T00:01:59.392Z,97207.43
2018-10-07T00:02:30.980Z,97210.00
2018-10-07T00:03:02.572Z,97207.02
2018-10-07T00:03:34.161Z,97209.13
2018-10-07T00:04:05.753Z,97193.34
2018-10-07T00:04:37.387Z,97198.05
2018-10-07T00:05:08.981Z,97200.19
2018-10-07T00:05:40.591Z,97202.70
2018-10-07T00:06:12.198Z,97198.44
2018-10-07T00:06:43.802Z,97206.55
2018-10-07T00:07:15.382Z,97207.85
2018-10-07T00:07:46.980Z,97201.00
2018-10-07T00:08:18.570Z,97200.59
2018-10-07T00:08:50.150Z,97197.19
2018-10-07T00:09:21.769Z,97205.71
2018-10-07T00:09:53.373Z,97200.59
2018-10-07T00:10:24.978Z,97203.14
2018-10-07T00:10:56.576Z,97197.19
2018-10-07T00:11:28.166Z,97200.61
2018-10-07T00:11:59.761Z,97201.11
2018-10-07T00:12:31.365Z,97201.09
2018-10-07T00:13:02.959Z,97204.92
2018-10-07T00:13:34.549Z,97202.80
2018-10-07T00:14:06.146Z,97204.09
2018-10-07T00:14:37.783Z,97201.95
2018-10-07T00:15:09.386Z,97198.11
2018-10-07T00:15:40.999Z,97196.51
2018-10-07T00:16:12.592Z,97203.67
2018-10-07T00:16:44.171Z,97202.86
2018-10-07T00:17:15.775Z,97206.28
2018-10-07T00:17:47.368Z,97203.77
2018-10-07T00:18:18.971Z,97203.72
2018-10-07T00:18:50.578Z,97201.63
2018-10-07T00:19:22.233Z,97206.28
2018-10-07T00:19:53.842Z,97204.20
2018-10-07T00:20:25.474Z,97205.86
2018-10-07T00:20:57.063Z,97200.73
2018-10-07T00:21:28.656Z,97204.22
2018-10-07T00:22:00.239Z,97204.22
2018-10-07T00:22:31.822Z,97203.37
2018-10-07T00:23:03.423Z,97205.08
2018-10-07T00:23:35.021Z,97197.06
2018-10-07T00:24:06.608Z,97202.59
2018-10-07T00:24:38.233Z,97199.14
2018-10-07T00:25:09.829Z,97204.33
2018-10-07T00:25:41.417Z,97206.02
2018-10-07T00:26:13.009Z,97201.34
2018-10-07T00:26:44.600Z,97202.63
2018-10-07T00:27:16.206Z,97206.06
2018-10-07T00:27:47.786Z,97207.77
2018-10-07T00:28:19.380Z,97207.79
2018-10-07T00:28:50.958Z,97202.25
2018-10-07T00:29:22.570Z,97205.73
2018-10-07T00:29:54.163Z,97206.15
2018-10-07T00:30:25.775Z,97201.49
2018-10-07T00:30:57.354Z,97204.45
2018-10-07T00:31:28.959Z,97203.59
2018-10-07T00:32:00.556Z,97206.98
2018-10-07T00:32:32.146Z,97203.17
2018-10-07T00:33:03.750Z,97201.05
2018-10-07T00:33:35.356Z,97206.17
2018-10-07T00:34:06.939Z,97207.89
2018-10-07T00:34:38.676Z,97204.08
2018-10-07T00:35:10.278Z,97204.97
2018-10-07T00:35:41.882Z,97209.20
2018-10-07T00:36:13.486Z,97188.58
2018-10-07T00:36:45.090Z,97205.94
2018-10-07T00:37:16.671Z,97204.37
2018-10-07T00:37:48.281Z,97200.23
2018-10-07T00:38:19.880Z,97197.00
2018-10-07T00:38:51.473Z,97202.24
2018-10-07T00:39:23.068Z,97202.03
2018-10-07T00:39:54.661Z,97197.81
2018-10-07T00:40:26.252Z,97202.16
2018-10-07T00:40:57.850Z,97197.06
2018-10-07T00:41:29.444Z,97207.72
2018-10-07T00:42:01.038Z,97200.06
2018-10-07T00:42:32.643Z,97203.04
2018-10-07T00:43:04.237Z,97201.76
2018-10-07T00:43:35.834Z,97204.32
2018-10-07T00:44:07.411Z,97200.92
2018-10-07T00:44:39.006Z,97197.06
2018-10-07T00:45:10.638Z,97204.34
2018-10-07T00:45:42.233Z,97202.26
2018-10-07T00:46:13.843Z,97198.86
2018-10-07T00:46:45.422Z,97199.72
2018-10-07T00:47:17.026Z,97198.86
2018-10-07T00:47:48.620Z,97197.16
2018-10-07T00:48:20.210Z,97196.30
2018-10-07T00:48:51.815Z,97201.39
2018-10-07T00:49:23.735Z,97200.98
2018-10-07T00:49:55.348Z,97198.42
2018-10-07T00:50:26.950Z,97200.92
2018-10-07T00:50:58.544Z,97200.12
2018-10-07T00:51:30.151Z,97198.42
2018-10-07T00:52:01.733Z,97205.63
2018-10-07T00:52:33.335Z,97199.22
2018-10-07T00:53:04.924Z,97200.50
2018-10-07T00:53:36.530Z,97205.23
2018-10-07T00:54:08.114Z,97203.06
2018-10-07T00:54:39.704Z,97203.04
2018-10-07T00:55:11.314Z,97201.34
2018-10-07T00:55:42.909Z,97203.04
2018-10-07T00:56:14.511Z,97204.73
2018-10-07T00:56:46.122Z,97201.30
2018-10-07T00:57:17.703Z,97206.36
2018-10-07T00:57:49.306Z,97203.75
2018-10-07T00:58:20.896Z,97201.17
2018-10-07T00:58:52.489Z,97197.27
2018-10-07T00:59:24.094Z,97205.38
2018-10-07T00:59:55.730Z,97198.95
2018-10-07T01:00:27.339Z,97207.89
2018-10-07T01:00:58.941Z,97206.13
2018-10-07T01:01:30.532Z,97204.05
2018-10-07T01:02:02.139Z,97202.77
2018-10-07T01:02:33.737Z,97204.85
2018-10-07T01:03:05.331Z,97207.83
2018-10-07T01:03:36.936Z,97209.11
2018-10-07T01:04:08.544Z,97207.41
2018-10-07T01:04:40.150Z,97211.31
2018-10-07T01:05:11.759Z,97207.03
2018-10-07T01:05:43.367Z,97209.17
2018-10-07T01:06:14.964Z,97207.47
2018-10-07T01:06:46.570Z,97206.63
2018-10-07T01:07:18.167Z,97204.91
2018-10-07T01:07:49.770Z,97204.85
2018-10-07T01:08:21.375Z,97207.03
2018-10-07T01:08:52.982Z,97202.77
2018-10-07T01:09:24.587Z,97206.19
2018-10-07T01:09:56.209Z,97202.77
2018-10-07T01:10:27.843Z,97204.52
2018-10-07T01:10:59.431Z,97201.95
2018-10-07T01:11:31.020Z,97203.65
2018-10-07T01:12:02.613Z,97201.51
2018-10-07T01:12:34.216Z,97199.37
2018-10-07T01:13:05.827Z,97203.65
2018-10-07T01:13:37.431Z,97206.97
2018-10-07T01:14:09.024Z,97209.98
2018-10-07T01:14:40.620Z,97207.03
2018-10-07T01:15:12.278Z,97204.05
2018-10-07T01:15:43.887Z,97205.75
2018-10-07T01:16:15.466Z,97202.29
2018-10-07T01:16:47.057Z,97203.63
2018-10-07T01:17:18.648Z,97201.06
2018-10-07T01:17:50.226Z,97201.01
2018-10-07T01:18:21.824Z,97204.47
2018-10-07T01:18:53.420Z,97200.64
2018-10-07T01:19:25.012Z,97194.66
2018-10-07T01:19:56.626Z,97197.64
2018-10-07T01:20:28.282Z,97192.52
2018-10-07T01:20:59.884Z,97196.39
2018-10-07T01:21:31.490Z,97191.24
2018-10-07T01:22:03.094Z,97188.68
2018-10-07T01:22:34.688Z,97185.30
2018-10-07T01:23:06.281Z,97190.84
2018-10-07T01:23:37.872Z,97192.57
2018-10-07T01:24:09.451Z,97184.89
2018-10-07T01:24:41.038Z,97189.59
2018-10-07T01:25:12.642Z,97190.06
2018-10-07T01:25:44.274Z,97181.48
2018-10-07T01:26:15.883Z,97181.97
2018-10-07T01:26:47.472Z,97175.98
2018-10-07T01:27:19.061Z,97178.12
2018-10-07T01:27:50.667Z,97180.27
2018-10-07T01:28:22.257Z,97178.54
2018-10-07T01:28:53.863Z,97179.83
2018-10-07T01:29:25.474Z,97173.91
2018-10-07T01:29:57.064Z,97182.38
2018-10-07T01:30:28.671Z,97179.42
2018-10-07T01:31:00.269Z,97177.73
2018-10-07T01:31:31.874Z,97179.42
2018-10-07T01:32:03.479Z,97173.89
2018-10-07T01:32:35.087Z,97182.43
2018-10-07T01:33:06.694Z,97179.03
2018-10-07T01:33:38.293Z,97176.52
2018-10-07T01:34:09.885Z,97180.73
2018-10-07T01:34:41.494Z,97180.37
2018-10-07T01:35:13.102Z,97176.89
2018-10-07T01:35:44.738Z,97176.00
2018-10-07T01:36:16.331Z,97178.54
2018-10-07T01:36:47.932Z,97181.88
2018-10-07T01:37:19.524Z,97177.58
2018-10-07T01:37:51.116Z,97177.91
2018-10-07T01:38:22.707Z,97175.02
2018-10-07T01:38:54.305Z,97179.59
2018-10-07T01:39:25.911Z,97174.86
2018-10-07T01:39:57.520Z,97179.53
2018-10-07T01:40:29.241Z,97181.23
2018-10-07T01:41:00.847Z,97182.94
2018-10-07T01:41:32.476Z,97173.55
2018-10-07T01:42:04.074Z,97180.79
2018-10-07T01:42:35.673Z,97178.23
2018-10-07T01:43:07.277Z,97180.45
2018-10-07T01:43:38.871Z,97177.47
2018-10-07T01:44:10.466Z,97182.54
2018-10-07T01:44:42.071Z,97178.75
2018-10-07T01:45:13.668Z,97183.90
2018-10-07T01:45:45.298Z,97180.08
2018-10-07T01:46:16.892Z,97183.56
2018-10-07T01:46:48.495Z,97181.91
2018-10-07T01:47:20.089Z,97180.19
2018-10-07T01:47:51.694Z,97179.77
2018-10-07T01:48:23.332Z,97176.37
2018-10-07T01:48:54.918Z,97187.08
2018-10-07T01:49:26.515Z,97184.11
2018-10-07T01:49:58.108Z,97181.98
2018-10-07T01:50:29.712Z,97182.41
2018-10-07T01:51:01.333Z,97183.71
2018-10-07T01:51:32.924Z,97166.25
2018-10-07T01:52:04.521Z,97186.69
2018-10-07T01:52:36.113Z,97187.58
2018-10-07T01:53:07.700Z,97188.85
2018-10-07T01:53:39.306Z,97188.05
2018-10-07T01:54:10.910Z,97185.88
2018-10-07T01:54:42.523Z,97188.00
2018-10-07T01:55:14.115Z,97187.11
2018-10-07T01:55:45.747Z,97184.52
2018-10-07T01:56:17.351Z,97187.89
2018-10-07T01:56:48.944Z,97184.47
2018-10-07T01:57:20.532Z,97187.41
2018-10-07T01:57:52.122Z,97180.16
2018-10-07T01:58:23.730Z,97183.50
2018-10-07T01:58:55.315Z,97187.77
2018-10-07T01:59:27.009Z,97186.04
2018-10-07T01:59:58.513Z,97182.22
2018-10-07T02:00:30.108Z,97182.20
2018-10-07T02:01:01.729Z,97184.30
2018-10-07T02:01:33.316Z,97186.02
2018-10-07T02:02:04.904Z,97181.76
2018-10-07T02:02:36.509Z,97177.03
2018-10-07T02:03:08.114Z,97179.61
2018-10-07T02:03:39.708Z,97183.45
2018-10-07T02:04:11.304Z,97181.31
2018-10-07T02:04:42.906Z,97179.61
2018-10-07T02:05:14.624Z,97182.20
2018-10-07T02:05:46.135Z,97184.34
2018-10-07T02:06:17.753Z,97177.10
2018-10-07T02:06:49.360Z,97179.64
2018-10-07T02:07:20.967Z,97175.80
2018-10-07T02:07:52.564Z,97179.22
2018-10-07T02:08:24.167Z,97179.24
2018-10-07T02:08:55.764Z,97182.70
2018-10-07T02:09:27.356Z,97178.44
2018-10-07T02:09:58.939Z,97183.56
2018-10-07T02:10:30.543Z,97180.19
2018-10-07T02:11:02.151Z,97177.64
2018-10-07T02:11:33.758Z,97185.30
2018-10-07T02:12:05.363Z,97184.44
2018-10-07T02:12:36.961Z,97183.59
2018-10-07T02:13:08.568Z,97182.75
2018-10-07T02:13:40.161Z,97190.77
2018-10-07T02:14:11.748Z,97185.28
2018-10-07T02:14:43.335Z,97184.44
2018-10-07T02:15:14.928Z,97188.28
2018-10-07T02:15:46.535Z,97185.70
2018-10-07T02:16:18.156Z,97186.56
2018-10-07T02:16:49.750Z,97184.86
2018-10-07T02:17:21.345Z,97184.37
2018-10-07T02:17:52.959Z,97188.20
2018-10-07T02:18:24.548Z,97188.31
2018-10-07T02:18:56.141Z,97188.28
2018-10-07T02:19:27.736Z,97183.19
2018-10-07T02:19:59.343Z,97190.42
2018-10-07T02:20:30.923Z,97181.88
2018-10-07T02:21:02.548Z,97186.98
2018-10-07T02:21:34.126Z,97184.00
2018-10-07T02:22:05.726Z,97190.42
2018-10-07T02:22:37.317Z,97182.75
2018-10-07T02:23:08.898Z,97179.33
2018-10-07T02:23:40.493Z,97184.37
2018-10-07T02:24:12.099Z,97187.34
2018-10-07T02:24:43.703Z,97182.22
2018-10-07T02:25:15.304Z,97185.62
2018-10-07T02:25:46.883Z,97184.78
2018-10-07T02:26:18.501Z,97188.20
2018-10-07T02:26:50.106Z,97182.28
2018-10-07T02:27:21.710Z,97181.86
2018-10-07T02:27:53.304Z,97191.27
2018-10-07T02:28:24.906Z,97186.13
2018-10-07T02:28:56.486Z,97187.82
2018-10-07T02:29:28.080Z,97183.59
2018-10-07T02:29:59.682Z,97184.03
2018-10-07T02:30:31.279Z,97192.05
2018-10-07T02:31:02.915Z,97191.69
2018-10-07T02:31:34.516Z,97187.42
2018-10-07T02:32:06.131Z,97186.14
2018-10-07T02:32:41.397Z,97187.87
2018-10-07T02:33:13.016Z,97183.56
2018-10-07T02:33:44.608Z,97186.14
2018-10-07T02:34:16.216Z,97195.50
2018-10-07T02:34:47.826Z,97190.84
2018-10-07T02:35:19.422Z,97187.82
2018-10-07T02:35:51.020Z,97181.44
2018-10-07T02:36:22.630Z,97188.68
2018-10-07T02:36:54.241Z,97187.82
2018-10-07T02:37:25.829Z,97187.82
2018-10-07T02:37:57.438Z,97191.24
2018-10-07T02:38:29.040Z,97190.83
2018-10-07T02:39:00.639Z,97191.69
2018-10-07T02:39:32.232Z,97192.94
2018-10-07T02:40:03.834Z,97190.38
2018-10-07T02:40:35.443Z,97188.70
2018-10-07T02:41:07.078Z,97194.27
2018-10-07T02:41:38.683Z,97193.41
2018-10-07T02:42:10.290Z,97190.84
2018-10-07T02:42:41.898Z,97195.58
2018-10-07T02:43:13.489Z,97203.67
2018-10-07T02:43:45.099Z,97195.99
2018-10-07T02:44:16.707Z,97194.38
2018-10-07T02:44:48.312Z,97191.81
2018-10-07T02:45:19.909Z,97199.08
2018-10-07T02:45:51.505Z,97191.00
2018-10-07T02:46:23.110Z,97193.11
2018-10-07T02:46:54.700Z,97196.20
2018-10-07T02:47:26.278Z,97196.54
2018-10-07T02:47:57.874Z,97201.66
2018-10-07T02:48:29.462Z,97193.11
2018-10-07T02:49:01.057Z,97198.23
2018-10-07T02:49:32.662Z,97197.39
2018-10-07T02:50:04.253Z,97195.25
2018-10-07T02:50:35.857Z,97190.53
2018-10-07T02:51:07.485Z,97199.91
2018-10-07T02:51:39.118Z,97188.37
2018-10-07T02:52:10.699Z,97197.75
2018-10-07T02:52:42.297Z,97190.92
2018-10-07T02:53:13.969Z,97196.85
2018-10-07T02:53:45.515Z,97197.27
2018-10-07T02:54:17.099Z,97197.23
2018-10-07T02:54:48.704Z,97198.87
2018-10-07T02:55:20.307Z,97195.86
2018-10-07T02:55:51.905Z,97198.80
2018-10-07T02:56:23.533Z,97199.58
2018-10-07T02:56:55.139Z,97198.70
2018-10-07T02:57:26.732Z,97198.17
2018-10-07T02:57:58.324Z,97202.44
2018-10-07T02:58:29.936Z,97199.80
2018-10-07T02:59:01.543Z,97198.94
2018-10-07T02:59:33.154Z,97197.65
2018-10-07T03:00:04.756Z,97195.92
2018-10-07T03:00:36.362Z,97200.19
2018-10-07T03:01:07.966Z,97196.79
2018-10-07T03:01:39.598Z,97196.77
2018-10-07T03:02:11.192Z,97192.09
2018-10-07T03:02:42.784Z,97197.23
2018-10-07T03:03:14.387Z,97203.69
2018-10-07T03:03:45.980Z,97193.47
2018-10-07T03:04:17.573Z,97201.18
2018-10-07T03:04:49.247Z,97198.17
2018-10-07T03:05:20.822Z,97199.89
2018-10-07T03:05:52.438Z,97204.18
2018-10-07T03:06:24.047Z,97194.41
2018-10-07T03:06:55.628Z,97196.97
2018-10-07T03:07:27.225Z,97208.10
2018-10-07T03:07:58.834Z,97205.09
2018-10-07T03:08:30.439Z,97204.70
2018-10-07T03:09:02.051Z,97205.98
2018-10-07T03:09:33.644Z,97205.66
2018-10-07T03:10:05.247Z,97208.30
2018-10-07T03:10:36.851Z,97201.98
2018-10-07T03:11:08.459Z,97207.16
2018-10-07T03:11:40.093Z,97211.85
2018-10-07T03:12:11.685Z,97207.57
2018-10-07T03:12:43.272Z,97205.45
2018-10-07T03:13:14.874Z,97201.63
2018-10-07T03:13:46.459Z,97211.48
2018-10-07T03:14:18.062Z,97204.27
2018-10-07T03:14:49.670Z,97202.52
2018-10-07T03:15:21.282Z,97204.61
2018-10-07T03:15:52.877Z,97205.45
2018-10-07T03:16:24.500Z,97210.13
2018-10-07T03:16:56.079Z,97205.42
2018-10-07T03:17:27.682Z,97210.50
2018-10-07T03:17:59.272Z,97200.77
2018-10-07T03:18:30.880Z,97201.98
2018-10-07T03:19:02.485Z,97206.71
2018-10-07T03:19:34.084Z,97202.87
2018-10-07T03:20:05.663Z,97205.01
2018-10-07T03:20:37.266Z,97207.09
2018-10-07T03:21:08.860Z,97206.66
2018-10-07T03:21:40.496Z,97203.67
2018-10-07T03:22:12.099Z,97202.81
2018-10-07T03:22:43.689Z,97205.35
2018-10-07T03:23:15.295Z,97204.05
2018-10-07T03:23:46.915Z,97207.91
2018-10-07T03:24:18.508Z,97207.89
2018-10-07T03:24:50.104Z,97213.45
2018-10-07T03:25:21.696Z,97211.73
2018-10-07T03:25:53.278Z,97211.75
2018-10-07T03:26:24.854Z,97217.27
2018-10-07T03:26:56.476Z,97207.78
2018-10-07T03:27:28.083Z,97212.93
2018-10-07T03:27:59.672Z,97213.81
2018-10-07T03:28:31.272Z,97209.71
2018-10-07T03:29:02.878Z,97211.02
2018-10-07T03:29:34.518Z,97207.64
2018-10-07T03:30:06.082Z,97206.86
2018-10-07T03:30:37.684Z,97205.23
2018-10-07T03:31:09.277Z,97205.28
2018-10-07T03:31:40.901Z,97210.51
2018-10-07T03:32:12.500Z,97206.34
2018-10-07T03:32:44.118Z,97203.37
2018-10-07T03:33:15.706Z,97204.25
2018-10-07T03:33:47.311Z,97205.53
2018-10-07T03:34:18.923Z,97203.89
2018-10-07T03:34:50.512Z,97203.47
2018-10-07T03:35:22.113Z,97198.38
2018-10-07T03:35:53.719Z,97200.95
2018-10-07T03:36:25.327Z,97200.95
2018-10-07T03:36:56.958Z,97205.27
2018-10-07T03:37:28.549Z,97199.73
2018-10-07T03:38:00.154Z,97198.47
2018-10-07T03:38:31.760Z,97198.89
2018-10-07T03:39:03.352Z,97199.31
2018-10-07T03:39:34.955Z,97197.17
2018-10-07T03:40:06.552Z,97199.75
2018-10-07T03:40:38.149Z,97197.61
2018-10-07T03:41:09.758Z,97198.92
2018-10-07T03:41:41.340Z,97198.92
2018-10-07T03:42:12.974Z,97193.81
2018-10-07T03:42:44.572Z,97196.80
2018-10-07T03:43:16.174Z,97197.22
2018-10-07T03:43:47.768Z,97191.67
2018-10-07T03:44:19.388Z,97195.59
2018-10-07T03:44:50.984Z,97195.57
2018-10-07T03:45:22.592Z,97193.38
2018-10-07T03:45:54.184Z,97191.66
2018-10-07T03:46:25.787Z,97198.81
2018-10-07T03:46:57.394Z,97197.93
2018-10-07T03:47:28.991Z,97197.05
2018-10-07T03:48:00.598Z,97188.53
2018-10-07T03:48:32.192Z,97190.23
2018-10-07T03:49:03.799Z,97192.79
2018-10-07T03:49:35.392Z,97191.03
2018-10-07T03:50:06.988Z,97188.42
2018-10-07T03:50:38.590Z,97190.86
2018-10-07T03:51:10.194Z,97186.92
2018-10-07T03:51:41.800Z,97188.13
2018-10-07T03:52:13.434Z,97187.66
2018-10-07T03:52:45.024Z,97180.75
2018-10-07T03:53:16.618Z,97179.01
2018-10-07T03:53:48.222Z,97181.55
2018-10-07T03:54:19.830Z,97186.17
2018-10-07T03:54:51.434Z,97188.27
2018-10-07T03:55:23.041Z,97188.28
2018-10-07T03:55:54.626Z,97189.55
2018-10-07T03:56:26.234Z,97183.59
2018-10-07T03:56:57.852Z,97188.73
2018-10-07T03:57:29.455Z,97188.28
2018-10-07T03:58:01.053Z,97195.11
2018-10-07T03:58:32.653Z,97189.55
2018-10-07T03:59:04.252Z,97195.08
2018-10-07T03:59:35.845Z,97189.56
2018-10-07T04:00:07.445Z,97194.24
2018-10-07T04:00:39.058Z,97190.84
2018-10-07T04:01:10.654Z,97197.14
2018-10-07T04:01:42.244Z,97193.70
2018-10-07T04:02:13.865Z,97198.82
2018-10-07T04:02:45.452Z,97195.42
2018-10-07T04:03:17.058Z,97200.97
2018-10-07T04:03:48.648Z,97196.73
2018-10-07T04:04:20.230Z,97189.88
2018-10-07T04:04:51.842Z,97195.82
2018-10-07T04:05:23.437Z,97196.19
2018-10-07T04:05:55.042Z,97194.04
2018-10-07T04:06:26.633Z,97197.88
2018-10-07T04:06:58.229Z,97191.03
2018-10-07T04:07:29.863Z,97195.73
2018-10-07T04:08:01.463Z,97193.58
2018-10-07T04:08:33.070Z,97194.41
2018-10-07T04:09:04.658Z,97200.02
2018-10-07T04:09:36.248Z,97193.20
2018-10-07T04:10:07.851Z,97188.05
2018-10-07T04:10:39.446Z,97192.34
2018-10-07T04:11:11.069Z,97187.66
2018-10-07T04:11:42.651Z,97188.55
2018-10-07T04:12:14.285Z,97188.58
2018-10-07T04:12:45.889Z,97184.00
2018-10-07T04:13:17.494Z,97184.78
2018-10-07T04:13:49.095Z,97188.68
2018-10-07T04:14:20.684Z,97188.27
2018-10-07T04:14:52.291Z,97187.01
2018-10-07T04:15:23.888Z,97184.47
2018-10-07T04:15:55.480Z,97186.69
2018-10-07T04:16:27.080Z,97187.08
2018-10-07T04:16:58.658Z,97188.81
2018-10-07T04:17:30.281Z,97187.97
2018-10-07T04:18:01.862Z,97199.05
2018-10-07T04:18:33.453Z,97193.09
2018-10-07T04:19:05.035Z,97195.23
2018-10-07T04:19:36.629Z,97186.30
2018-10-07T04:20:08.238Z,97185.93
2018-10-07T04:20:39.828Z,97192.33
2018-10-07T04:21:11.434Z,97193.17
2018-10-07T04:21:43.028Z,97188.91
2018-10-07T04:22:14.668Z,97188.09
2018-10-07T04:22:46.279Z,97186.38
2018-10-07T04:23:17.890Z,97189.37
2018-10-07T04:23:49.485Z,97189.80
2018-10-07T04:24:21.076Z,97191.94
2018-10-07T04:24:52.678Z,97189.37
2018-10-07T04:25:24.287Z,97185.12
2018-10-07T04:25:55.877Z,97182.22
2018-10-07T04:26:27.476Z,97193.22
2018-10-07T04:26:59.091Z,97194.05
2018-10-07T04:27:30.723Z,97188.62
2018-10-07T04:28:02.313Z,97189.81
2018-10-07T04:28:33.909Z,97193.66
2018-10-07T04:29:05.518Z,97196.20
2018-10-07T04:29:37.120Z,97193.66
2018-10-07T04:30:08.717Z,97195.36
2018-10-07T04:30:40.308Z,97190.23
2018-10-07T04:31:11.913Z,97191.96
2018-10-07T04:31:43.505Z,97194.10
2018-10-07T04:32:15.107Z,97196.66
2018-10-07T04:32:46.705Z,97194.58
2018-10-07T04:33:18.402Z,97200.98
2018-10-07T04:33:49.997Z,97200.92
2018-10-07T04:34:21.578Z,97199.22
2018-10-07T04:34:53.182Z,97202.26
2018-10-07T04:35:24.759Z,97199.70
2018-10-07T04:35:56.338Z,97203.12
2018-10-07T04:36:27.942Z,97203.98
2018-10-07T04:36:59.546Z,97201.86
2018-10-07T04:37:31.180Z,97207.84
2018-10-07T04:38:02.791Z,97212.97
2018-10-07T04:38:34.377Z,97208.78
2018-10-07T04:39:05.982Z,97210.41
2018-10-07T04:39:37.587Z,97203.69
2018-10-07T04:40:09.188Z,97207.50
2018-10-07T04:40:40.780Z,97212.65
2018-10-07T04:41:12.382Z,97210.53
2018-10-07T04:41:43.981Z,97210.95
2018-10-07T04:42:15.572Z,97213.91
2018-10-07T04:42:47.160Z,97209.64
2018-10-07T04:43:18.756Z,97211.77
2018-10-07T04:43:50.344Z,97212.65
2018-10-07T04:44:21.981Z,97216.06
2018-10-07T04:44:53.569Z,97216.09
2018-10-07T04:45:25.164Z,97217.84
2018-10-07T04:45:56.756Z,97217.89
2018-10-07T04:46:28.477Z,97212.80
2018-10-07T04:47:00.014Z,97219.59
2018-10-07T04:47:31.616Z,97214.47
2018-10-07T04:48:03.233Z,97217.89
2018-10-07T04:48:34.839Z,97218.31
2018-10-07T04:49:06.446Z,97217.47
2018-10-07T04:49:38.027Z,97217.45
2018-10-07T04:50:09.634Z,97218.61
2018-10-07T04:50:41.243Z,97219.86
2018-10-07T04:51:12.836Z,97216.06
2018-10-07T04:51:44.445Z,97217.45
2018-10-07T04:52:16.041Z,97217.91
2018-10-07T04:52:47.642Z,97224.41
2018-10-07T04:53:19.250Z,97221.48
2018-10-07T04:53:50.850Z,97221.39
2018-10-07T04:54:22.440Z,97222.70
2018-10-07T04:54:54.043Z,97220.13
2018-10-07T04:55:25.636Z,97225.70
2018-10-07T04:55:57.242Z,97224.00
2018-10-07T04:56:28.836Z,97218.51
2018-10-07T04:57:00.427Z,97224.08
2018-10-07T04:57:32.020Z,97224.08
2018-10-07T04:58:03.636Z,97224.52
2018-10-07T04:58:35.242Z,97220.31
2018-10-07T04:59:06.825Z,97225.45
2018-10-07T04:59:38.424Z,97226.72
2018-10-07T05:00:10.035Z,97223.82
2018-10-07T05:00:41.646Z,97233.14
2018-10-07T05:01:13.240Z,97231.06
2018-10-07T05:01:44.832Z,97229.36
2018-10-07T05:02:16.421Z,97228.52
2018-10-07T05:02:47.998Z,97232.78
2018-10-07T05:03:19.626Z,97228.50
2018-10-07T05:03:51.221Z,97234.90
2018-10-07T05:04:22.827Z,97232.73
2018-10-07T05:04:54.436Z,97238.24
2018-10-07T05:05:26.028Z,97237.83
2018-10-07T05:05:57.621Z,97234.85
2018-10-07T05:06:29.227Z,97235.27
2018-10-07T05:07:00.825Z,97234.41
2018-10-07T05:07:32.448Z,97236.95
2018-10-07T05:08:04.072Z,97233.14
2018-10-07T05:08:35.665Z,97238.25
2018-10-07T05:09:07.256Z,97236.88
2018-10-07T05:09:38.858Z,97236.02
2018-10-07T05:10:10.453Z,97239.85
2018-10-07T05:10:42.031Z,97235.16
2018-10-07T05:11:13.625Z,97231.73
2018-10-07T05:11:45.243Z,97238.08
2018-10-07T05:12:17.001Z,97230.03
2018-10-07T05:12:48.495Z,97232.52
2018-10-07T05:13:20.133Z,97241.45
2018-10-07T05:13:51.728Z,97232.05
2018-10-07T05:14:23.321Z,97232.52
2018-10-07T05:14:55.539Z,97235.45
2018-10-07T05:15:27.142Z,97235.03
2018-10-07T05:15:58.771Z,97236.75
2018-10-07T05:16:30.365Z,97239.33
2018-10-07T05:17:01.971Z,97244.88
2018-10-07T05:17:33.579Z,97239.31
2018-10-07T05:18:05.227Z,97242.71
2018-10-07T05:18:36.843Z,97238.89
2018-10-07T05:19:08.444Z,97245.30
2018-10-07T05:19:40.033Z,97249.58
2018-10-07T05:20:11.620Z,97246.59
2018-10-07T05:20:43.217Z,97249.58
2018-10-07T05:21:14.805Z,97252.11
2018-10-07T05:21:46.427Z,97248.69
2018-10-07T05:22:18.007Z,97249.55
2018-10-07T05:22:49.582Z,97248.31
2018-10-07T05:23:21.204Z,97251.27
2018-10-07T05:23:52.800Z,97252.48
2018-10-07T05:24:24.394Z,97254.16
2018-10-07T05:24:56.010Z,97248.52
2018-10-07T05:25:27.605Z,97250.71
2018-10-07T05:25:59.196Z,97252.85
2018-10-07T05:26:30.796Z,97259.17
2018-10-07T05:27:02.413Z,97262.99
2018-10-07T05:27:33.990Z,97259.62
2018-10-07T05:28:05.581Z,97258.30
2018-10-07T05:28:37.216Z,97254.89
2018-10-07T05:29:08.818Z,97258.71
2018-10-07T05:29:40.430Z,97260.41
2018-10-07T05:30:12.024Z,97262.13
2018-10-07T05:30:43.620Z,97262.53
2018-10-07T05:31:15.202Z,97267.59
2018-10-07T05:31:46.785Z,97262.45
2018-10-07T05:32:18.381Z,97265.44
2018-10-07T05:32:49.972Z,97265.89
2018-10-07T05:33:21.688Z,97268.44
2018-10-07T05:33:53.242Z,97265.97
2018-10-07T05:34:24.832Z,97273.14
2018-10-07T05:34:56.410Z,97266.30
2018-10-07T05:35:28.014Z,97267.99
2018-10-07T05:35:59.618Z,97271.41
2018-10-07T05:36:31.209Z,97274.41
2018-10-07T05:37:02.800Z,97270.58
2018-10-07T05:37:34.395Z,97256.07
2018-10-07T05:38:05.999Z,97272.70
2018-10-07T05:38:37.616Z,97273.58
2018-10-07T05:39:09.223Z,97277.84
2018-10-07T05:39:40.830Z,97273.63
2018-10-07T05:40:12.442Z,97272.72
2018-10-07T05:40:44.028Z,97278.70
2018-10-07T05:41:15.635Z,97273.14
2018-10-07T05:41:47.236Z,97280.37
2018-10-07T05:42:18.825Z,97276.46
2018-10-07T05:42:50.426Z,97276.41
2018-10-07T05:43:22.031Z,97270.33
2018-10-07T05:43:53.652Z,97283.16
2018-10-07T05:44:25.375Z,97280.59
2018-10-07T05:44:56.892Z,97284.41
2018-10-07T05:45:28.499Z,97281.02
2018-10-07T05:46:00.093Z,97285.70
2018-10-07T05:46:31.742Z,97279.34
2018-10-07T05:47:03.299Z,97279.73
2018-10-07T05:47:34.892Z,97280.58
2018-10-07T05:48:06.484Z,97281.88
2018-10-07T05:48:38.112Z,97282.31
2018-10-07T05:49:09.700Z,97285.70
2018-10-07T05:49:41.280Z,97280.17
2018-10-07T05:50:12.876Z,97282.31
2018-10-07T05:50:44.478Z,97285.73
2018-10-07T05:51:16.072Z,97287.44
2018-10-07T05:51:47.653Z,97283.26
2018-10-07T05:52:19.235Z,97289.23
2018-10-07T05:52:50.824Z,97290.96
2018-10-07T05:53:22.416Z,97289.68
2018-10-07T05:53:54.036Z,97296.94
2018-10-07T05:54:25.632Z,97291.88
2018-10-07T05:54:57.225Z,97295.66
2018-10-07T05:55:28.817Z,97302.12
2018-10-07T05:56:00.426Z,97302.98
2018-10-07T05:56:32.030Z,97304.68
2018-10-07T05:57:03.644Z,97302.56
2018-10-07T05:57:35.302Z,97304.26
2018-10-07T05:58:06.910Z,97308.13
2018-10-07T05:58:38.884Z,97302.61
2018-10-07T05:59:10.490Z,97309.33
2018-10-07T05:59:42.084Z,97304.63
2018-10-07T06:00:13.663Z,97308.44
2018-10-07T06:00:45.246Z,97309.74
2018-10-07T06:01:16.841Z,97309.80
2018-10-07T06:01:48.530Z,97311.88
2018-10-07T06:02:20.143Z,97308.52
2018-10-07T06:02:51.717Z,97309.38
2018-10-07T06:03:23.317Z,97313.64
2018-10-07T06:03:54.950Z,97310.61
2018-10-07T06:04:26.531Z,97310.61
2018-10-07T06:04:58.108Z,97315.70
2018-10-07T06:05:29.697Z,97311.52
2018-10-07T06:06:01.296Z,97310.23
2018-10-07T06:06:32.885Z,97318.36
2018-10-07T06:07:04.481Z,97307.70
2018-10-07T06:07:36.076Z,97312.38
2018-10-07T06:08:07.672Z,97313.69
2018-10-07T06:08:39.288Z,97322.23
2018-10-07T06:09:10.919Z,97319.30
2018-10-07T06:09:42.512Z,97317.60
2018-10-07T06:10:14.104Z,97321.02
2018-10-07T06:10:45.696Z,97320.18
2018-10-07T06:11:17.292Z,97319.77